Terminal Aerodrome Forecast
Issued by NWS Albuquerque, NM

Home | Current Version | Previous Version | Text Only | Print | Product List | Glossary On
Versions: 1 2 3 4 5 6 7 8 9 10 11 12 13
712
FTUS45 KABQ 221735
TAFABQ
TAF
KABQ 221735Z 2218/2318 21007KT P6SM FEW060 BKN200
     FM222100 23013G21KT P6SM BKN150
     FM230200 22011KT P6SM BKN100
     FM230900 18012G20KT P6SM SCT100
     FM231500 22016G26KT P6SM SKC=

USA.gov is the U.S. government's official web portal to all federal, state and local government web resources and services.